Time;durP1;ratioP1;P1;durP2;ratioP2;P2;SDS_P1;SDS_P2;PMS_P1;PMS_P2;Temp;Humidity;BMP_temperature;BMP_pressure;BME280_temperature;BME280_humidity;BME280_pressure;Samples;Min_cycle;Max_cycle;Signal;HPM_P1;HPM_P2
2021/06/17 00:00:52;;;;;;;10.38;5.50;;;20.40;97.20;;;;;;4982803;28;20040;-82
2021/06/17 00:03:18;;;;;;;11.23;5.95;;;20.40;97.20;;;;;;4983362;28;20526;-82
2021/06/17 00:05:45;;;;;;;7.10;6.10;;;20.40;97.30;;;;;;4965635;28;20054;-82
2021/06/17 00:08:25;;;;;;;9.80;6.25;;;20.30;97.40;;;;;;4979110;28;20042;-82
2021/06/17 00:10:57;;;;;;;15.48;5.95;;;20.30;97.60;;;;;;4967180;28;20510;-82
2021/06/17 00:13:27;;;;;;;9.10;6.25;;;20.30;97.60;;;;;;4948167;28;21528;-82
2021/06/17 00:15:57;;;;;;;12.68;5.85;;;20.30;97.60;;;;;;4964505;28;20129;-82
2021/06/17 00:18:24;;;;;;;9.20;6.32;;;20.10;97.60;;;;;;4979359;28;20113;-81
2021/06/17 00:20:50;;;;;;;9.60;6.03;;;20.30;97.70;;;;;;4982617;28;20034;-82
2021/06/17 00:23:15;;;;;;;7.32;6.00;;;20.50;98.00;;;;;;4983204;28;20062;-82
2021/06/17 00:25:41;;;;;;;7.97;6.07;;;20.30;98.00;;;;;;4984206;28;20049;-82
2021/06/17 00:28:07;;;;;;;9.55;5.80;;;20.10;98.00;;;;;;4969906;28;20121;-82
2021/06/17 00:30:34;;;;;;;9.90;6.75;;;20.50;98.20;;;;;;4985235;28;20173;-82
2021/06/17 00:32:59;;;;;;;13.55;6.80;;;20.00;98.20;;;;;;4970217;28;20034;-82
2021/06/17 00:35:25;;;;;;;10.70;6.45;;;20.00;98.30;;;;;;4983981;28;20047;-81
2021/06/17 00:37:52;;;;;;;7.72;6.30;;;19.90;98.40;;;;;;4967838;28;20038;-81
2021/06/17 00:40:19;;;;;;;15.70;6.55;;;19.90;98.50;;;;;;4982392;28;20039;-81
2021/06/17 00:42:47;;;;;;;9.48;6.70;;;19.80;98.50;;;;;;4969786;28;20045;-81
2021/06/17 00:45:21;;;;;;;9.80;5.60;;;19.80;98.70;;;;;;4981892;28;20043;-82
2021/06/17 00:47:48;;;;;;;11.53;6.87;;;19.70;98.60;;;;;;4981959;28;20053;-81
2021/06/17 00:50:15;;;;;;;9.48;6.63;;;19.70;98.70;;;;;;4984851;28;20301;-82
2021/06/17 00:52:43;;;;;;;8.70;5.65;;;19.60;98.90;;;;;;4984231;28;20073;-82
2021/06/17 00:55:09;;;;;;;7.97;6.93;;;19.50;98.90;;;;;;4983695;28;20038;-82
2021/06/17 00:57:35;;;;;;;11.65;6.45;;;19.50;99.10;;;;;;4983100;28;20038;-82
2021/06/17 01:00:00;;;;;;;10.35;6.40;;;19.40;99.20;;;;;;4969696;28;20574;-81
2021/06/17 01:02:26;;;;;;;9.85;6.78;;;19.40;99.30;;;;;;4971577;28;20110;-81
2021/06/17 01:04:52;;;;;;;9.35;6.97;;;19.40;99.40;;;;;;4982773;28;20038;-82
2021/06/17 01:07:31;;;;;;;10.88;7.20;;;19.70;99.60;;;;;;4981105;28;20400;-81
2021/06/17 01:10:25;;;;;;;9.02;6.57;;;19.30;99.70;;;;;;4980703;28;20042;-81
2021/06/17 01:13:28;;;;;;;8.35;6.32;;;19.30;99.70;;;;;;4983927;28;20038;-81
2021/06/17 01:16:12;;;;;;;11.10;7.43;;;19.20;99.70;;;;;;4985374;28;20987;-81
2021/06/17 01:18:48;;;;;;;10.60;7.70;;;19.20;99.80;;;;;;4982812;28;20152;-81
2021/06/17 01:21:26;;;;;;;9.38;6.40;;;19.20;99.90;;;;;;4978554;28;20129;-81
2021/06/17 01:24:19;;;;;;;11.40;7.28;;;19.20;99.90;;;;;;4983921;28;20061;-81
2021/06/17 01:27:30;;;;;;;9.60;7.80;;;19.20;99.90;;;;;;4981745;28;20060;-81
2021/06/17 01:30:01;;;;;;;10.70;8.40;;;19.20;99.90;;;;;;4932380;29;20043;-81
2021/06/17 01:32:27;;;;;;;10.65;6.75;;;19.00;99.90;;;;;;4975952;28;20066;-81
2021/06/17 01:34:55;;;;;;;9.50;7.00;;;19.00;99.90;;;;;;4982032;28;20041;-81
2021/06/17 01:37:24;;;;;;;10.25;7.63;;;19.00;99.90;;;;;;4981586;28;20462;-81
2021/06/17 01:39:53;;;;;;;10.95;8.85;;;19.00;99.90;;;;;;4981062;28;20795;-81
2021/06/17 01:42:23;;;;;;;11.60;9.75;;;19.00;99.90;;;;;;4979786;28;20567;-81
2021/06/17 01:44:49;;;;;;;8.82;7.43;;;19.20;99.90;;;;;;4981928;28;20046;-81
2021/06/17 01:47:15;;;;;;;9.43;8.32;;;19.00;99.90;;;;;;4982415;28;20035;-81
2021/06/17 01:49:42;;;;;;;8.63;7.75;;;19.00;99.90;;;;;;4981436;28;20046;-81
2021/06/17 01:52:09;;;;;;;14.43;8.40;;;19.00;99.90;;;;;;4985284;28;20086;-81
2021/06/17 01:54:41;;;;;;;6.65;5.95;;;19.00;99.90;;;;;;4983215;28;20122;-81
2021/06/17 01:57:08;;;;;;;10.45;7.13;;;19.00;99.90;;;;;;4973209;28;20175;-81
2021/06/17 01:59:35;;;;;;;8.07;7.13;;;18.90;99.90;;;;;;4982250;28;20105;-81
2021/06/17 02:02:02;;;;;;;15.07;8.77;;;19.00;99.90;;;;;;4963176;28;20588;-81
2021/06/17 02:04:29;;;;;;;8.68;7.40;;;18.90;99.90;;;;;;4984189;28;20031;-81
2021/06/17 02:06:56;;;;;;;10.32;8.40;;;18.80;99.90;;;;;;4983400;28;20042;-81
2021/06/17 02:09:24;;;;;;;8.10;7.25;;;19.30;99.90;;;;;;4983319;28;20034;-81
2021/06/17 02:11:52;;;;;;;9.07;8.13;;;18.80;99.90;;;;;;4984370;28;20927;-81
2021/06/17 02:14:18;;;;;;;8.73;7.88;;;18.90;99.90;;;;;;4980307;28;20120;-81
2021/06/17 02:16:45;;;;;;;7.68;6.90;;;18.90;99.90;;;;;;4982125;28;20041;-81
2021/06/17 02:19:23;;;;;;;8.48;7.38;;;18.90;99.90;;;;;;4984613;28;20531;-81
2021/06/17 02:21:53;;;;;;;13.40;7.10;;;18.90;99.90;;;;;;4984631;28;20066;-81
2021/06/17 02:24:20;;;;;;;11.70;10.13;;;18.90;99.90;;;;;;4980230;28;20042;-81
2021/06/17 02:26:48;;;;;;;10.27;8.65;;;18.80;99.90;;;;;;4980358;28;20097;-81
2021/06/17 02:29:17;;;;;;;11.15;8.95;;;18.80;99.90;;;;;;4982208;28;20129;-81
2021/06/17 02:31:44;;;;;;;9.52;8.63;;;18.80;99.90;;;;;;4984422;28;20034;-81
2021/06/17 02:34:14;;;;;;;12.32;8.77;;;18.70;99.90;;;;;;4972860;28;20105;-81
2021/06/17 02:36:46;;;;;;;13.23;9.93;;;18.70;99.90;;;;;;4988809;28;20527;-81
2021/06/17 02:39:13;;;;;;;13.10;10.90;;;18.70;99.90;;;;;;4988325;28;20038;-81
2021/06/17 02:41:44;;;;;;;13.10;11.50;;;18.80;99.90;;;;;;4989274;28;20066;-81
2021/06/17 02:44:11;;;;;;;10.13;9.13;;;18.70;99.90;;;;;;4989295;28;20042;-81
2021/06/17 02:46:36;;;;;;;9.38;8.10;;;18.80;99.90;;;;;;4989334;28;20593;-81
2021/06/17 02:49:07;;;;;;;9.45;8.55;;;18.60;99.90;;;;;;4986588;28;20090;-82
2021/06/17 02:51:33;;;;;;;13.38;9.80;;;18.70;99.90;;;;;;4987198;28;20042;-81
2021/06/17 02:53:59;;;;;;;12.52;10.77;;;18.70;99.90;;;;;;4987540;28;20034;-81
2021/06/17 02:56:27;;;;;;;16.70;9.32;;;18.70;99.90;;;;;;4968294;28;20039;-81
2021/06/17 02:59:18;;;;;;;11.27;10.18;;;18.70;99.90;;;;;;4956501;28;20054;-81
2021/06/17 03:01:57;;;;;;;11.02;8.90;;;18.80;99.90;;;;;;4971806;28;20050;-81
2021/06/17 03:04:32;;;;;;;18.60;12.13;;;18.80;99.90;;;;;;4970715;28;20041;-82
2021/06/17 03:07:01;;;;;;;17.27;14.38;;;18.80;99.90;;;;;;4986468;28;20657;-82
2021/06/17 03:09:43;;;;;;;17.98;13.45;;;18.90;99.90;;;;;;4974045;28;20074;-81
2021/06/17 03:12:12;;;;;;;17.02;13.05;;;18.90;99.90;;;;;;4985126;28;20114;-81
2021/06/17 03:14:40;;;;;;;14.30;12.10;;;18.90;99.90;;;;;;4987129;28;20076;-82
2021/06/17 03:17:07;;;;;;;17.17;13.70;;;19.20;99.90;;;;;;4987626;28;20069;-82
2021/06/17 03:19:35;;;;;;;16.17;14.60;;;19.00;99.90;;;;;;4971515;28;20054;-82
2021/06/17 03:22:10;;;;;;;17.58;15.85;;;19.00;99.90;;;;;;4983283;28;20180;-81
2021/06/17 03:24:38;;;;;;;16.00;14.63;;;19.30;99.90;;;;;;4972977;28;20176;-81
2021/06/17 03:27:07;;;;;;;17.10;15.32;;;19.10;99.90;;;;;;4970025;28;20038;-82
2021/06/17 03:29:37;;;;;;;17.45;15.85;;;19.10;99.90;;;;;;4972504;28;20062;-82
2021/06/17 03:32:05;;;;;;;19.30;17.33;;;19.20;99.90;;;;;;4986392;28;20042;-81
2021/06/17 03:34:32;;;;;;;16.05;14.65;;;19.20;99.90;;;;;;4973459;28;20046;-82
2021/06/17 03:37:00;;;;;;;17.45;15.57;;;19.50;99.90;;;;;;4987045;28;20125;-81
2021/06/17 03:39:27;;;;;;;17.95;16.13;;;19.40;99.90;;;;;;4989884;28;20042;-82
2021/06/17 03:41:53;;;;;;;18.38;16.58;;;19.30;99.90;;;;;;4988272;28;20069;-82
2021/06/17 03:44:21;;;;;;;19.48;15.93;;;19.30;99.90;;;;;;4990363;28;20041;-81
2021/06/17 03:46:47;;;;;;;20.05;18.15;;;19.40;99.90;;;;;;4972131;28;20359;-82
2021/06/17 03:49:13;;;;;;;17.80;16.08;;;19.70;99.90;;;;;;4975965;28;20090;-82
2021/06/17 03:51:41;;;;;;;18.00;15.13;;;19.50;99.90;;;;;;4988456;28;20038;-82
2021/06/17 03:54:08;;;;;;;19.80;17.95;;;19.50;99.90;;;;;;4993715;28;20380;-82
2021/06/17 03:56:34;;;;;;;19.85;17.88;;;19.50;99.90;;;;;;4975097;28;20113;-81
2021/06/17 03:59:00;;;;;;;19.85;17.77;;;19.80;99.90;;;;;;4986555;28;20034;-82
2021/06/17 04:01:28;;;;;;;21.92;17.65;;;19.60;99.90;;;;;;4994116;28;20097;-82
2021/06/17 04:03:54;;;;;;;20.70;18.55;;;19.70;99.90;;;;;;4974434;28;20133;-81
2021/06/17 04:06:24;;;;;;;18.92;16.98;;;20.00;99.90;;;;;;4991269;28;20129;-81
2021/06/17 04:08:52;;;;;;;23.60;17.02;;;19.90;99.90;;;;;;4973052;28;20038;-81
2021/06/17 04:11:20;;;;;;;19.33;17.30;;;19.90;99.90;;;;;;4974777;28;20039;-81
2021/06/17 04:13:48;;;;;;;18.65;15.98;;;20.00;99.90;;;;;;4993520;28;20042;-81
2021/06/17 04:16:25;;;;;;;19.23;17.27;;;20.10;99.90;;;;;;4974132;28;20790;-82
2021/06/17 04:18:56;;;;;;;18.20;16.40;;;20.30;99.90;;;;;;4956702;28;20161;-81
2021/06/17 04:21:34;;;;;;;17.30;15.60;;;20.30;99.90;;;;;;4959664;28;20049;-82
2021/06/17 04:24:06;;;;;;;20.20;17.95;;;20.40;99.90;;;;;;4958049;28;20038;-81
2021/06/17 04:26:32;;;;;;;17.33;15.38;;;20.40;99.90;;;;;;4968873;28;20054;-82
2021/06/17 04:28:58;;;;;;;18.58;15.80;;;20.70;99.90;;;;;;4989727;28;20042;-81
2021/06/17 04:31:27;;;;;;;19.23;15.57;;;20.50;99.90;;;;;;4992510;28;20101;-81
2021/06/17 04:33:53;;;;;;;17.67;15.77;;;20.80;99.90;;;;;;4986624;28;20563;-82
2021/06/17 04:36:20;;;;;;;17.13;15.48;;;21.30;99.90;;;;;;4991453;28;20042;-81
2021/06/17 04:38:47;;;;;;;19.15;16.73;;;21.10;99.90;;;;;;4991456;28;20038;-82
2021/06/17 04:41:13;;;;;;;17.70;15.38;;;21.10;99.90;;;;;;4990796;28;20046;-80
2021/06/17 04:43:39;;;;;;;16.45;14.85;;;21.30;99.90;;;;;;4987656;28;20046;-84
2021/06/17 04:46:05;;;;;;;19.02;15.43;;;21.40;99.90;;;;;;4985547;28;20053;-82
2021/06/17 04:48:38;;;;;;;18.00;14.10;;;21.90;99.90;;;;;;4987160;28;20038;-82
2021/06/17 04:51:25;;;;;;;15.25;13.82;;;22.20;99.80;;;;;;4984565;28;20048;-81
2021/06/17 04:53:54;;;;;;;17.20;15.40;;;22.60;99.20;;;;;;4974634;28;20050;-84
2021/06/17 04:56:28;;;;;;;15.48;14.07;;;23.20;98.50;;;;;;4971768;28;20042;-84
2021/06/17 04:59:08;;;;;;;15.80;13.15;;;24.10;97.10;;;;;;4985702;28;20137;-81
2021/06/17 05:01:58;;;;;;;14.45;12.93;;;25.00;95.70;;;;;;4975131;28;20042;-83
2021/06/17 05:04:35;;;;;;;18.85;13.10;;;25.50;94.30;;;;;;4984136;28;20043;-83
2021/06/17 05:12:29;;;;;;;15.57;14.02;;;25.80;93.00;;;;;;4986259;28;20089;-82
2021/06/17 05:14:56;;;;;;;13.80;12.25;;;25.50;93.20;;;;;;4968288;28;20521;-83
2021/06/17 05:17:46;;;;;;;13.73;12.50;;;25.30;93.70;;;;;;4987789;28;20570;-83
2021/06/17 05:20:26;;;;;;;14.18;12.88;;;25.30;94.00;;;;;;4969095;28;20513;-82
2021/06/17 05:23:24;;;;;;;13.65;12.35;;;25.30;93.60;;;;;;4981898;28;20046;-82
2021/06/17 05:26:16;;;;;;;14.82;13.20;;;25.40;93.50;;;;;;4981085;28;20504;-83
2021/06/17 05:28:55;;;;;;;13.65;12.27;;;25.50;93.20;;;;;;4983729;28;20125;-83
2021/06/17 05:31:23;;;;;;;14.38;12.98;;;25.60;93.20;;;;;;4986203;28;20397;-83
2021/06/17 05:33:58;;;;;;;14.25;12.50;;;25.80;93.10;;;;;;4969624;28;20490;-83
2021/06/17 05:36:30;;;;;;;13.55;12.25;;;25.90;92.50;;;;;;4951886;28;20752;-82
2021/06/17 05:39:15;;;;;;;14.48;11.20;;;26.10;92.40;;;;;;4968951;28;20068;-82
2021/06/17 05:41:57;;;;;;;14.40;11.55;;;26.30;92.10;;;;;;4969744;28;20043;-83
2021/06/17 05:44:32;;;;;;;12.82;11.63;;;26.40;91.50;;;;;;4953436;28;20495;-83
2021/06/17 05:46:58;;;;;;;12.40;10.95;;;26.60;91.40;;;;;;4970679;28;20034;-83
2021/06/17 05:49:24;;;;;;;16.35;11.98;;;26.80;90.90;;;;;;4970928;28;20031;-82
2021/06/17 05:51:51;;;;;;;12.82;11.05;;;26.90;90.60;;;;;;4968674;28;20814;-83
2021/06/17 05:54:18;;;;;;;12.93;11.43;;;27.10;90.30;;;;;;4985266;28;20393;-83
2021/06/17 05:56:52;;;;;;;12.15;10.93;;;27.30;90.00;;;;;;4966251;28;20108;-83
2021/06/17 05:59:42;;;;;;;20.08;11.73;;;27.40;89.00;;;;;;4936210;28;20050;-83
2021/06/17 06:02:10;;;;;;;12.60;10.68;;;27.60;88.30;;;;;;4952220;28;20091;-83
2021/06/17 06:04:45;;;;;;;11.55;9.88;;;27.80;87.40;;;;;;4983972;28;20649;-83
2021/06/17 06:07:10;;;;;;;12.23;10.25;;;28.00;87.10;;;;;;4983164;28;20121;-84
2021/06/17 06:09:36;;;;;;;13.32;10.88;;;28.00;84.20;;;;;;4983423;28;20558;-83
2021/06/17 06:12:04;;;;;;;15.07;10.15;;;28.10;83.70;;;;;;4980968;28;20126;-83
2021/06/17 06:14:29;;;;;;;9.70;8.68;;;28.10;83.80;;;;;;4979556;28;20034;-83
2021/06/17 06:16:55;;;;;;;12.73;9.15;;;28.30;83.80;;;;;;4974765;28;20423;-83
2021/06/17 06:19:21;;;;;;;10.38;9.38;;;28.70;84.00;;;;;;4977299;28;20042;-83
2021/06/17 06:21:47;;;;;;;14.77;8.88;;;28.80;83.80;;;;;;4982064;28;20153;-82
2021/06/17 06:24:13;;;;;;;16.50;9.02;;;29.10;82.30;;;;;;4977493;28;20042;-82
2021/06/17 06:26:38;;;;;;;10.07;8.35;;;29.10;80.10;;;;;;4983571;28;20053;-82
2021/06/17 06:29:04;;;;;;;10.90;9.48;;;29.20;81.50;;;;;;4968434;28;20057;-83
2021/06/17 06:31:30;;;;;;;9.68;8.75;;;29.20;78.90;;;;;;4976454;28;20086;-83
2021/06/17 06:33:55;;;;;;;12.65;8.55;;;29.40;77.60;;;;;;4980300;28;20038;-83
2021/06/17 06:36:21;;;;;;;8.95;7.72;;;29.30;77.00;;;;;;4978759;28;20050;-83
2021/06/17 06:38:46;;;;;;;8.20;7.50;;;29.30;77.10;;;;;;4982003;28;20069;-83
2021/06/17 06:41:12;;;;;;;8.15;7.38;;;29.60;77.00;;;;;;4980720;28;20391;-83
2021/06/17 06:43:38;;;;;;;12.70;7.68;;;29.60;74.60;;;;;;4980081;28;20053;-83
2021/06/17 06:46:03;;;;;;;8.40;6.85;;;29.60;75.10;;;;;;4982711;28;20740;-82
2021/06/17 06:48:30;;;;;;;8.85;7.85;;;29.80;74.70;;;;;;4979440;28;20114;-83
2021/06/17 06:50:55;;;;;;;13.32;7.20;;;29.60;73.60;;;;;;4981511;28;20490;-83
2021/06/17 06:53:21;;;;;;;9.65;7.40;;;29.60;74.40;;;;;;4978148;28;20061;-82
2021/06/17 06:55:47;;;;;;;8.65;7.03;;;29.50;71.70;;;;;;4983978;28;20070;-83
2021/06/17 06:58:13;;;;;;;12.18;7.32;;;29.50;72.60;;;;;;4984096;28;20429;-83
2021/06/17 07:00:43;;;;;;;9.98;7.93;;;29.40;73.80;;;;;;4978226;28;20113;-83
2021/06/17 07:03:09;;;;;;;10.30;8.00;;;29.60;73.70;;;;;;4976119;28;20045;-83
2021/06/17 07:05:34;;;;;;;8.32;7.45;;;29.80;72.00;;;;;;4977007;28;20118;-82
2021/06/17 07:08:04;;;;;;;10.25;7.95;;;29.60;71.10;;;;;;4983273;28;20746;-82
2021/06/17 07:10:30;;;;;;;10.73;8.18;;;29.70;72.50;;;;;;4979734;28;20394;-83
2021/06/17 07:12:55;;;;;;;10.15;6.75;;;29.80;71.70;;;;;;4980392;28;20038;-83
2021/06/17 07:15:21;;;;;;;13.55;7.72;;;30.00;73.20;;;;;;4983790;28;20038;-83
2021/06/17 07:17:56;;;;;;;9.38;7.82;;;30.00;71.40;;;;;;4982001;28;20042;-82
2021/06/17 07:20:24;;;;;;;8.27;7.07;;;30.00;73.70;;;;;;4981155;28;20034;-82
2021/06/17 07:22:55;;;;;;;8.45;7.63;;;30.10;71.90;;;;;;4965315;28;20054;-83
2021/06/17 07:25:53;;;;;;;10.93;7.78;;;30.20;71.60;;;;;;4984027;28;20066;-83
2021/06/17 07:28:48;;;;;;;11.82;7.43;;;30.30;70.30;;;;;;4989009;28;20046;-83
2021/06/17 07:31:46;;;;;;;11.45;8.13;;;30.30;69.70;;;;;;4970917;28;20071;-84
2021/06/17 07:34:30;;;;;;;14.35;7.15;;;30.40;70.70;;;;;;4978825;28;20078;-83
2021/06/17 07:41:16;;;;;;;9.48;6.95;;;30.40;69.20;;;;;;4982594;28;20587;-84
2021/06/17 07:48:51;;;;;;;7.70;6.90;;;30.50;70.00;;;;;;4935882;28;20058;-83
2021/06/17 07:51:56;;;;;;;10.13;6.97;;;30.60;70.40;;;;;;4930398;29;20515;-84
2021/06/17 07:57:48;;;;;;;10.52;7.63;;;30.80;69.20;;;;;;4930250;29;20050;-84
2021/06/17 08:00:14;;;;;;;11.30;7.70;;;31.10;68.90;;;;;;4914647;29;20131;-83
2021/06/17 08:02:48;;;;;;;10.68;8.55;;;31.20;69.00;;;;;;4911235;29;20528;-82
2021/06/17 08:09:20;;;;;;;9.07;7.38;;;31.50;68.10;;;;;;4877883;29;20083;-83
2021/06/17 08:12:10;;;;;;;9.80;7.60;;;31.60;68.30;;;;;;4873372;29;20056;-83
2021/06/17 08:17:58;;;;;;;7.95;6.47;;;31.80;64.90;;;;;;4985256;28;20046;-83
2021/06/17 08:20:42;;;;;;;8.98;6.72;;;31.60;67.50;;;;;;4982315;28;20035;-83
2021/06/17 08:23:21;;;;;;;11.35;6.60;;;31.70;65.80;;;;;;4931868;28;20155;-83
2021/06/17 08:25:49;;;;;;;13.18;5.38;;;31.50;65.00;;;;;;4962623;28;20118;-83
2021/06/17 08:28:24;;;;;;;9.82;5.50;;;31.60;64.30;;;;;;4966440;28;20042;-83
2021/06/17 08:31:19;;;;;;;11.25;5.47;;;31.40;63.40;;;;;;4953539;28;20050;-82
2021/06/17 08:33:45;;;;;;;7.15;5.68;;;31.50;65.80;;;;;;4976513;28;20044;-82
2021/06/17 08:36:11;;;;;;;6.88;5.30;;;31.60;66.30;;;;;;4973664;28;20057;-82
2021/06/17 08:38:38;;;;;;;9.40;5.80;;;31.90;65.70;;;;;;4978324;28;20043;-82
2021/06/17 08:41:04;;;;;;;8.00;4.60;;;31.80;64.00;;;;;;4964764;28;20057;-83
2021/06/17 08:43:30;;;;;;;7.60;5.05;;;32.00;62.90;;;;;;4972370;28;20052;-82
2021/06/17 08:45:56;;;;;;;7.72;5.45;;;32.10;63.20;;;;;;4976008;28;20039;-82
2021/06/17 08:48:22;;;;;;;9.50;5.47;;;32.20;64.00;;;;;;4960520;28;20546;-82
2021/06/17 08:50:48;;;;;;;11.48;4.85;;;32.30;62.60;;;;;;4968753;28;20060;-83
2021/06/17 08:53:14;;;;;;;8.93;4.25;;;32.40;61.10;;;;;;4976883;28;20041;-83
2021/06/17 08:55:41;;;;;;;8.23;5.00;;;32.40;60.70;;;;;;4975742;28;20346;-83
2021/06/17 08:58:07;;;;;;;6.93;4.90;;;32.30;62.10;;;;;;4976342;28;20054;-83
2021/06/17 09:00:41;;;;;;;7.22;5.13;;;32.40;62.10;;;;;;4981296;28;20034;-82
2021/06/17 09:03:12;;;;;;;5.72;4.60;;;32.20;61.50;;;;;;4974437;28;20047;-82
2021/06/17 09:05:41;;;;;;;6.82;4.43;;;32.30;61.50;;;;;;4973035;28;20078;-83
2021/06/17 09:08:09;;;;;;;10.27;4.22;;;32.50;61.80;;;;;;4958484;28;20062;-83
2021/06/17 09:10:40;;;;;;;5.03;3.88;;;32.50;60.30;;;;;;4973956;28;20040;-82
2021/06/17 09:13:05;;;;;;;7.25;4.22;;;32.60;60.90;;;;;;4972759;28;20902;-83
2021/06/17 09:15:54;;;;;;;10.70;3.72;;;32.80;60.20;;;;;;4975008;28;20030;-83
2021/06/17 09:18:29;;;;;;;7.80;3.53;;;32.90;61.50;;;;;;4961859;28;20049;-83
2021/06/17 09:21:01;;;;;;;5.13;4.07;;;32.80;60.80;;;;;;4975049;28;20129;-83
2021/06/17 09:23:29;;;;;;;10.45;4.70;;;33.30;61.00;;;;;;4971111;28;20049;-82
2021/06/17 09:26:05;;;;;;;8.48;4.75;;;33.30;59.80;;;;;;4973751;28;20062;-82
2021/06/17 09:28:51;;;;;;;10.85;4.35;;;33.40;57.20;;;;;;4972841;28;20303;-83
2021/06/17 09:31:36;;;;;;;10.88;4.00;;;33.40;59.10;;;;;;4975641;28;21294;-83
2021/06/17 09:34:10;;;;;;;7.85;3.85;;;33.30;57.10;;;;;;4956678;28;20074;-83
2021/06/17 09:37:51;;;;;;;5.95;4.45;;;33.40;57.50;;;;;;4978876;28;20049;-83
2021/06/17 09:40:22;;;;;;;10.55;4.47;;;33.30;58.30;;;;;;4974419;28;20148;-83
2021/06/17 09:43:15;;;;;;;8.63;4.28;;;33.40;57.60;;;;;;4948248;28;20039;-83
2021/06/17 09:45:50;;;;;;;8.35;4.03;;;33.40;56.70;;;;;;4962574;28;20042;-83
2021/06/17 09:48:42;;;;;;;14.45;3.95;;;33.30;56.60;;;;;;4962300;28;20058;-83
2021/06/17 09:51:34;;;;;;;55.28;7.00;;;33.40;54.70;;;;;;4976373;28;20037;-83
2021/06/17 09:54:08;;;;;;;41.08;5.80;;;33.30;54.60;;;;;;4958215;28;20038;-83
2021/06/17 09:56:36;;;;;;;10.93;3.28;;;33.20;53.90;;;;;;4958198;28;20042;-84
2021/06/17 09:59:04;;;;;;;25.48;4.07;;;33.30;54.50;;;;;;4973258;28;20046;-83
2021/06/17 10:01:48;;;;;;;8.98;3.33;;;33.40;53.90;;;;;;4971459;28;20031;-83
2021/06/17 10:04:43;;;;;;;9.25;3.13;;;33.40;53.80;;;;;;4972077;28;20074;-82
2021/06/17 10:07:13;;;;;;;22.27;4.97;;;33.60;55.10;;;;;;4938838;28;20054;-83
2021/06/17 10:09:39;;;;;;;7.40;4.10;;;33.60;53.20;;;;;;4957639;28;20038;-82
2021/06/17 10:12:05;;;;;;;10.18;3.80;;;33.80;54.00;;;;;;4980265;28;20043;-82
2021/06/17 10:14:31;;;;;;;3.88;3.47;;;33.90;54.20;;;;;;4976805;28;20901;-82
2021/06/17 10:17:19;;;;;;;5.32;3.78;;;34.00;53.70;;;;;;4974367;28;20118;-83
2021/06/17 10:19:45;;;;;;;7.18;3.85;;;33.90;53.40;;;;;;4972239;28;20904;-84
2021/06/17 10:22:11;;;;;;;5.60;3.28;;;33.90;51.00;;;;;;4974681;28;20075;-84
2021/06/17 10:24:39;;;;;;;18.95;3.90;;;33.90;51.50;;;;;;4973831;28;20054;-84
2021/06/17 10:27:11;;;;;;;14.27;3.30;;;33.90;50.90;;;;;;4956452;28;20046;-84
2021/06/17 10:29:39;;;;;;;6.63;3.35;;;33.90;51.60;;;;;;4976079;28;20042;-83
2021/06/17 10:32:08;;;;;;;5.13;2.80;;;33.50;49.60;;;;;;4959435;28;20505;-85
2021/06/17 10:34:39;;;;;;;5.47;3.15;;;33.90;50.80;;;;;;4972000;28;20069;-84
2021/06/17 10:37:14;;;;;;;20.83;4.70;;;33.90;52.40;;;;;;4971091;28;20755;-84
2021/06/17 10:39:48;;;;;;;8.35;3.25;;;34.00;51.90;;;;;;4971705;28;20057;-84
2021/06/17 10:42:16;;;;;;;5.53;2.77;;;34.10;50.50;;;;;;4969138;28;20053;-83
2021/06/17 10:44:57;;;;;;;6.45;2.70;;;34.00;49.20;;;;;;4968087;28;20046;-84
2021/06/17 10:47:38;;;;;;;7.95;3.80;;;34.00;49.90;;;;;;4973555;28;20038;-84
2021/06/17 10:50:07;;;;;;;4.43;3.28;;;34.10;53.00;;;;;;4973476;28;20038;-84
2021/06/17 10:52:34;;;;;;;5.30;3.65;;;34.00;50.80;;;;;;4971381;28;20040;-84
2021/06/17 10:55:01;;;;;;;5.35;3.75;;;34.10;50.60;;;;;;4973186;28;20680;-85
2021/06/17 10:57:49;;;;;;;8.15;2.92;;;34.40;51.60;;;;;;4958903;28;20045;-84
2021/06/17 11:02:53;;;;;;;;;;;34.40;51.80;;;;;;4972676;28;20042;-84
2021/06/17 11:05:34;;;;;;;10.63;3.92;;;34.50;51.60;;;;;;4972775;28;19928;-84
2021/06/17 11:08:18;;;;;;;5.55;3.47;;;34.60;52.90;;;;;;4963139;28;20039;-84
2021/06/17 11:10:50;;;;;;;7.70;3.63;;;34.50;51.80;;;;;;4976712;28;20045;-84
2021/06/17 11:13:37;;;;;;;4.13;3.72;;;34.40;50.80;;;;;;4969316;28;20054;-84
2021/06/17 11:16:11;;;;;;;6.18;3.08;;;34.40;50.10;;;;;;4976352;28;20562;-84
2021/06/17 11:18:45;;;;;;;4.70;3.17;;;34.40;51.40;;;;;;4957761;28;20121;-84
2021/06/17 11:21:41;;;;;;;4.60;3.95;;;34.50;52.90;;;;;;4972814;28;20114;-85
2021/06/17 11:24:09;;;;;;;9.02;3.97;;;34.60;52.40;;;;;;4963084;28;20108;-84
2021/06/17 11:26:37;;;;;;;8.40;4.93;;;34.40;51.00;;;;;;4971259;28;20908;-83
2021/06/17 11:29:08;;;;;;;8.40;4.38;;;34.20;52.60;;;;;;4954973;28;20062;-84
2021/06/17 11:31:40;;;;;;;6.10;3.33;;;34.30;53.30;;;;;;4955561;28;20030;-85
2021/06/17 11:34:28;;;;;;;5.20;2.97;;;34.60;52.80;;;;;;4971925;28;20748;-84
2021/06/17 11:36:55;;;;;;;5.95;3.25;;;34.50;52.20;;;;;;4971090;28;20787;-84
2021/06/17 11:39:29;;;;;;;5.78;3.25;;;34.50;52.00;;;;;;4974257;28;20051;-84
2021/06/17 11:41:57;;;;;;;7.70;3.17;;;34.60;51.70;;;;;;4972788;28;20229;-83
2021/06/17 11:44:25;;;;;;;5.78;3.08;;;34.40;52.60;;;;;;4969414;28;20049;-83
2021/06/17 11:47:02;;;;;;;15.35;3.25;;;34.40;52.70;;;;;;4970412;28;20874;-84
2021/06/17 11:49:33;;;;;;;4.60;2.90;;;34.30;52.00;;;;;;4975402;28;20073;-85
2021/06/17 11:52:00;;;;;;;7.85;3.20;;;34.30;49.50;;;;;;4958522;28;20177;-83
2021/06/17 11:54:26;;;;;;;8.35;2.83;;;34.30;50.90;;;;;;4973182;28;20034;-85
2021/06/17 11:56:53;;;;;;;5.93;3.30;;;34.20;52.00;;;;;;4974846;28;20136;-83
2021/06/17 11:59:28;;;;;;;7.53;2.85;;;34.30;51.20;;;;;;4973391;28;20038;-83
2021/06/17 12:06:28;;;;;;;9.40;2.92;;;34.40;51.70;;;;;;4936326;28;20472;-84
2021/06/17 12:09:25;;;;;;;4.57;2.97;;;34.40;50.60;;;;;;4883574;29;20185;-84
2021/06/17 12:12:22;;;;;;;;;;;34.40;51.70;;;;;;4868480;29;20048;-83
2021/06/17 12:15:15;;;;;;;6.32;2.20;;;34.40;50.80;;;;;;4867242;29;20297;-85
2021/06/17 12:18:07;;;;;;;10.48;3.17;;;34.40;51.70;;;;;;4913515;29;20070;-85
2021/06/17 12:24:41;;;;;;;5.78;2.55;;;34.80;48.40;;;;;;4935011;28;20112;-85
2021/06/17 12:27:27;;;;;;;10.48;2.53;;;34.70;48.10;;;;;;4921938;29;20086;-84
2021/06/17 12:29:56;;;;;;;5.32;2.35;;;34.60;50.00;;;;;;4933288;28;20142;-84
2021/06/17 12:32:35;;;;;;;4.47;2.55;;;34.70;50.60;;;;;;4918790;28;20122;-85
2021/06/17 12:35:48;;;;;;;14.20;2.88;;;34.50;50.00;;;;;;4933721;28;20115;-84
2021/06/17 12:39:02;;;;;;;7.03;2.58;;;34.40;47.70;;;;;;4925694;28;20495;-84
2021/06/17 12:42:07;;;;;;;6.85;2.00;;;34.50;47.00;;;;;;4940779;28;20810;-83
2021/06/17 12:45:43;;;;;;;5.00;2.20;;;34.50;49.90;;;;;;4975055;28;20046;-84
2021/06/17 12:49:10;;;;;;;3.10;2.35;;;34.40;47.30;;;;;;4976493;28;20033;-84
2021/06/17 12:54:40;;;;;;;5.70;2.42;;;34.50;49.30;;;;;;4975379;28;20042;-84
2021/06/17 12:57:11;;;;;;;6.18;2.22;;;34.60;48.50;;;;;;4960657;28;20042;-83
2021/06/17 13:00:03;;;;;;;5.07;2.47;;;34.70;50.10;;;;;;4975651;28;20046;-85
2021/06/17 13:02:33;;;;;;;4.93;2.42;;;34.70;46.90;;;;;;4956938;28;20048;-84
2021/06/17 13:05:23;;;;;;;8.32;2.05;;;34.70;49.10;;;;;;4962856;28;20229;-84
2021/06/17 13:08:35;;;;;;;11.50;2.10;;;34.70;48.40;;;;;;4962640;28;20450;-84
2021/06/17 13:11:42;;;;;;;8.90;2.28;;;34.50;46.80;;;;;;4954328;28;20053;-84
2021/06/17 13:14:14;;;;;;;7.60;2.47;;;34.30;47.50;;;;;;4964022;28;20108;-84
2021/06/17 13:16:41;;;;;;;4.97;2.10;;;34.30;47.20;;;;;;4973487;28;20066;-85
2021/06/17 13:19:09;;;;;;;8.25;2.53;;;34.50;47.70;;;;;;4975654;28;20053;-85
2021/06/17 13:21:35;;;;;;;5.88;2.38;;;34.10;46.60;;;;;;4973456;28;20387;-84
2021/06/17 13:24:01;;;;;;;13.35;2.70;;;34.00;47.40;;;;;;4974054;28;20539;-85
2021/06/17 13:26:30;;;;;;;7.38;2.33;;;33.70;47.60;;;;;;4977527;28;20049;-84
2021/06/17 13:29:00;;;;;;;6.97;2.28;;;33.60;48.70;;;;;;4971367;28;20046;-84
2021/06/17 13:31:32;;;;;;;3.78;2.63;;;33.50;49.50;;;;;;4961665;28;20113;-84
2021/06/17 13:34:01;;;;;;;4.20;2.50;;;33.40;50.10;;;;;;4971466;28;20774;-84
2021/06/17 13:36:27;;;;;;;8.90;2.75;;;33.50;51.10;;;;;;4975333;28;20042;-84
2021/06/17 13:38:52;;;;;;;9.43;3.13;;;33.60;52.40;;;;;;4972862;28;20971;-84
2021/06/17 13:41:24;;;;;;;7.53;2.55;;;33.90;50.10;;;;;;4974250;28;20038;-84
2021/06/17 13:44:12;;;;;;;9.15;3.00;;;34.10;50.00;;;;;;4945246;28;20042;-84
2021/06/17 13:47:03;;;;;;;15.02;4.13;;;34.20;49.80;;;;;;4952977;28;20045;-84
2021/06/17 13:49:28;;;;;;;26.90;5.30;;;34.40;52.40;;;;;;4974796;28;20034;-84
2021/06/17 13:51:56;;;;;;;22.50;5.38;;;34.40;52.20;;;;;;4973419;28;20043;-85